Schedule Details


Flight Number: CTN662
Departure: Franjo Tudman (LDZA) at 14:20
Arrival: Cilipi (LDDU) at 15:15
Route: TEBLI L187 EVTON Y128 TIKSA L607 NERRA

Weather Information
LDZA 200930Z 04017KT 010V070 9999 FEW045 09/M02 Q1032 NOSIG
LDDU 200930Z 02013KT 340V060 CAVOK 15/04 Q1022 BECMG 19007KT
Schedule Frequency

Route Map